createdAt,value
2023-04-12T00:00:48.567Z,11.15
2023-04-12T00:03:21.371Z,11.14
2023-04-12T00:05:48.676Z,11.13
2023-04-12T00:08:16.601Z,11.10
2023-04-12T00:10:43.219Z,11.11
2023-04-12T00:13:09.653Z,11.10
2023-04-12T00:15:36.140Z,11.10
2023-04-12T00:18:02.660Z,11.09
2023-04-12T00:20:29.284Z,11.07
2023-04-12T00:22:57.403Z,11.07
2023-04-12T00:25:23.786Z,11.07
2023-04-12T00:27:50.374Z,11.07
2023-04-12T00:30:17.419Z,11.05
2023-04-12T00:32:43.892Z,11.05
2023-04-12T00:35:10.332Z,11.04
2023-04-12T00:37:38.375Z,11.03
2023-04-12T00:40:07.840Z,11.02
2023-04-12T00:42:35.705Z,11.02
2023-04-12T00:45:02.116Z,11.01
2023-04-12T00:47:29.515Z,10.99
2023-04-12T00:49:56.816Z,10.98
2023-04-12T00:52:23.773Z,10.99
2023-04-12T00:54:51.842Z,10.98
2023-04-12T00:57:18.293Z,10.96
2023-04-12T00:59:44.770Z,10.96
2023-04-12T01:02:11.493Z,10.95
2023-04-12T01:04:38.663Z,10.94
2023-04-12T01:07:32.628Z,10.95
2023-04-12T01:10:17.817Z,10.94
2023-04-12T01:13:12.467Z,10.95
2023-04-12T01:15:48.567Z,10.94
2023-04-12T01:18:19.759Z,10.95
2023-04-12T01:21:01.319Z,10.94
2023-04-12T01:23:58.822Z,10.94
2023-04-12T01:26:38.519Z,10.95
2023-04-12T01:29:10.899Z,10.94
2023-04-12T01:31:41.242Z,10.94
2023-04-12T01:34:11.674Z,10.94
2023-04-12T01:36:38.841Z,10.93
2023-04-12T01:39:06.593Z,10.93
2023-04-12T01:41:32.993Z,10.93
2023-04-12T01:43:59.635Z,10.92
2023-04-12T01:46:26.227Z,10.92
2023-04-12T01:48:53.684Z,10.92
2023-04-12T01:51:49.628Z,10.92
2023-04-12T01:54:27.507Z,10.93
2023-04-12T01:57:00.806Z,10.93
2023-04-12T01:59:31.616Z,10.94
2023-04-12T02:01:58.643Z,10.93
2023-04-12T02:04:27.617Z,10.92
2023-04-12T02:06:54.226Z,10.91
2023-04-12T02:09:22.406Z,10.92
2023-04-12T02:11:49.667Z,10.92
2023-04-12T02:14:16.482Z,10.92
2023-04-12T02:16:44.641Z,10.92
2023-04-12T02:19:14.077Z,10.93
2023-04-12T02:21:45.555Z,10.93
2023-04-12T02:24:12.781Z,10.92
2023-04-12T02:26:40.094Z,10.91
2023-04-12T02:29:10.140Z,10.92
2023-04-12T02:31:38.801Z,10.91
2023-04-12T02:34:05.798Z,10.92
2023-04-12T02:36:32.197Z,10.91
2023-04-12T02:38:58.752Z,10.92
2023-04-12T02:41:25.290Z,10.93
2023-04-12T02:43:51.913Z,10.92
2023-04-12T02:46:27.192Z,10.92
2023-04-12T02:48:54.007Z,10.93
2023-04-12T02:51:20.435Z,10.93
2023-04-12T02:53:46.883Z,10.93
2023-04-12T02:56:13.322Z,10.94
2023-04-12T02:58:39.849Z,10.95
2023-04-12T03:01:07.585Z,10.95
2023-04-12T03:03:35.632Z,10.96
2023-04-12T03:06:02.452Z,10.98
2023-04-12T03:08:28.901Z,10.99
2023-04-12T03:10:55.705Z,11.02
2023-04-12T03:13:22.366Z,11.04
2023-04-12T03:15:51.726Z,11.06
2023-04-12T03:18:20.725Z,11.07
2023-04-12T03:20:47.788Z,11.09
2023-04-12T03:23:14.342Z,11.11
2023-04-12T03:25:41.115Z,11.12
2023-04-12T03:28:08.539Z,11.14
2023-04-12T03:30:34.934Z,11.16
2023-04-12T03:33:01.686Z,11.16
2023-04-12T03:35:28.135Z,11.17
2023-04-12T03:37:54.557Z,11.18
2023-04-12T03:40:21.460Z,11.18
2023-04-12T03:42:47.838Z,11.20
2023-04-12T03:45:14.193Z,11.20
2023-04-12T03:47:40.633Z,11.21
2023-04-12T03:52:37.390Z,11.23
2023-04-12T03:55:05.713Z,11.24
2023-04-12T03:57:32.087Z,11.25
2023-04-12T03:59:58.524Z,11.26
2023-04-12T04:02:25.479Z,11.27
2023-04-12T04:04:52.114Z,11.28
2023-04-12T04:07:18.522Z,11.28
2023-04-12T04:09:44.960Z,11.28
2023-04-12T04:12:11.286Z,11.28
2023-04-12T04:14:37.629Z,11.27
2023-04-12T04:17:04.068Z,11.26
2023-04-12T04:19:30.538Z,11.25
2023-04-12T04:21:56.950Z,11.24
2023-04-12T04:24:25.176Z,11.23
2023-04-12T04:26:54.424Z,11.24
2023-04-12T04:29:20.957Z,11.23
2023-04-12T04:31:47.530Z,11.23
2023-04-12T04:34:14.150Z,11.24
2023-04-12T04:36:41.512Z,11.27
2023-04-12T04:39:07.937Z,11.27
2023-04-12T04:41:34.977Z,11.29
2023-04-12T04:44:01.454Z,11.31
2023-04-12T04:46:30.558Z,11.32
2023-04-12T04:48:56.958Z,11.35
2023-04-12T04:51:23.411Z,11.37
2023-04-12T04:53:49.862Z,11.38
2023-04-12T04:56:16.430Z,11.40
2023-04-12T04:58:42.774Z,11.41
2023-04-12T05:01:09.304Z,11.43
2023-04-12T05:03:37.262Z,11.45
2023-04-12T05:06:04.019Z,11.48
2023-04-12T05:08:30.661Z,11.49
2023-04-12T05:10:57.488Z,11.50
2023-04-12T05:13:24.142Z,11.51
2023-04-12T05:15:50.998Z,11.52
2023-04-12T05:18:18.148Z,11.53
2023-04-12T05:20:45.753Z,11.53
2023-04-12T05:23:12.148Z,11.54
2023-04-12T05:25:44.198Z,11.55
2023-04-12T05:28:14.047Z,11.55
2023-04-12T05:30:40.758Z,11.54
2023-04-12T05:33:07.170Z,11.53
2023-04-12T05:35:33.630Z,11.53
2023-04-12T05:38:00.170Z,11.54
2023-04-12T05:40:26.537Z,11.55
2023-04-12T05:42:53.950Z,11.56
2023-04-12T05:45:20.365Z,11.57
2023-04-12T05:47:46.916Z,11.60
2023-04-12T05:50:13.334Z,11.64
2023-04-12T05:52:39.869Z,11.67
2023-04-12T05:55:06.614Z,11.69
2023-04-12T05:57:33.463Z,11.72
2023-04-12T05:59:59.897Z,11.74
2023-04-12T06:02:27.411Z,11.76
2023-04-12T06:04:55.843Z,11.79
2023-04-12T06:07:22.379Z,11.82
2023-04-12T06:09:49.664Z,11.84
2023-04-12T06:12:16.431Z,11.86
2023-04-12T06:14:42.803Z,11.88
2023-04-12T06:17:09.231Z,11.90
2023-04-12T06:19:35.876Z,11.91
2023-04-12T06:22:02.331Z,11.94
2023-04-12T06:24:28.799Z,11.95
2023-04-12T06:26:55.819Z,11.95
2023-04-12T06:29:22.147Z,11.98
2023-04-12T06:31:48.872Z,11.99
2023-04-12T06:34:15.616Z,11.98
2023-04-12T06:36:43.451Z,11.99
2023-04-12T06:39:11.994Z,11.99
2023-04-12T06:41:38.500Z,12.00
2023-04-12T06:44:05.158Z,11.98
2023-04-12T06:46:31.943Z,11.99
2023-04-12T06:48:58.821Z,11.98
2023-04-12T06:51:25.561Z,11.98
2023-04-12T06:53:51.903Z,11.98
2023-04-12T06:56:18.734Z,11.97
2023-04-12T06:58:45.889Z,11.98
2023-04-12T07:01:14.581Z,11.97
2023-04-12T07:03:41.207Z,11.96
2023-04-12T07:06:17.668Z,11.96
2023-04-12T07:08:50.704Z,11.97
2023-04-12T07:11:21.650Z,11.97
2023-04-12T07:13:48.993Z,11.97
2023-04-12T07:16:15.680Z,11.97
2023-04-12T07:18:42.160Z,11.98
2023-04-12T07:21:08.716Z,11.99
2023-04-12T07:23:35.247Z,12.01
2023-04-12T07:26:02.403Z,12.02
2023-04-12T07:28:28.916Z,12.05
2023-04-12T07:30:55.435Z,12.07
2023-04-12T07:33:21.982Z,12.09
2023-04-12T07:35:48.655Z,12.12
2023-04-12T07:38:16.798Z,12.13
2023-04-12T07:40:43.654Z,12.16
2023-04-12T07:43:10.432Z,12.17
2023-04-12T07:45:37.827Z,12.20
2023-04-12T07:48:04.598Z,12.23
2023-04-12T07:50:31.171Z,12.27
2023-04-12T07:53:17.637Z,12.34
2023-04-12T07:55:43.980Z,12.38
2023-04-12T07:58:10.320Z,12.40
2023-04-12T08:00:36.714Z,12.45
2023-04-12T08:03:03.242Z,12.50
2023-04-12T08:05:29.809Z,12.54
2023-04-12T08:07:56.255Z,12.58
2023-04-12T08:10:22.616Z,12.62
2023-04-12T08:12:49.096Z,12.65
2023-04-12T08:15:15.550Z,12.69
2023-04-12T08:17:43.820Z,12.70
2023-04-12T08:20:11.197Z,12.69
2023-04-12T08:22:37.604Z,12.71
2023-04-12T08:25:04.228Z,12.72
2023-04-12T08:27:30.816Z,12.74
2023-04-12T08:29:57.806Z,12.79
2023-04-12T08:32:24.332Z,12.82
2023-04-12T08:34:50.669Z,12.85
2023-04-12T08:37:17.689Z,12.91
2023-04-12T08:39:44.256Z,12.97
2023-04-12T08:42:11.049Z,13.03
2023-04-12T08:44:39.621Z,13.09
2023-04-12T08:47:07.657Z,13.15
2023-04-12T08:49:34.939Z,13.21
2023-04-12T08:52:05.775Z,13.24
2023-04-12T08:54:33.348Z,13.24
2023-04-12T08:57:03.225Z,13.25
2023-04-12T08:59:30.350Z,13.24
2023-04-12T09:01:58.080Z,13.23
2023-04-12T09:04:26.218Z,13.21
2023-04-12T09:06:52.678Z,13.18
2023-04-12T09:09:19.218Z,13.16
2023-04-12T09:11:45.756Z,13.13
2023-04-12T09:14:25.497Z,13.11
2023-04-12T09:16:51.958Z,13.07
2023-04-12T09:19:32.224Z,13.04
2023-04-12T09:21:58.803Z,13.02
2023-04-12T09:24:25.402Z,13.01
2023-04-12T09:27:01.980Z,13.01
2023-04-12T09:29:28.773Z,13.01
2023-04-12T09:32:02.149Z,13.03
2023-04-12T09:34:30.144Z,13.04
2023-04-12T09:36:56.935Z,13.06
2023-04-12T09:39:35.775Z,13.09
2023-04-12T09:42:12.371Z,13.10
2023-04-12T09:44:44.874Z,13.12
2023-04-12T09:47:11.361Z,13.14
2023-04-12T09:49:42.545Z,13.16
2023-04-12T09:52:10.956Z,13.16
2023-04-12T09:54:42.050Z,13.15
2023-04-12T09:57:09.115Z,13.14
2023-04-12T09:59:40.175Z,13.14
2023-04-12T10:02:18.769Z,13.14
2023-04-12T10:04:46.032Z,13.13
2023-04-12T10:07:14.904Z,13.15
2023-04-12T10:09:41.582Z,13.18
2023-04-12T10:12:09.623Z,13.22
2023-04-12T10:14:37.001Z,13.26
2023-04-12T10:17:04.744Z,13.30
2023-04-12T10:19:33.650Z,13.34
2023-04-12T10:22:01.353Z,13.38
2023-04-12T10:24:28.993Z,13.42
2023-04-12T10:27:00.048Z,13.44
2023-04-12T10:29:29.028Z,13.49
2023-04-12T10:31:57.653Z,13.52
2023-04-12T10:34:28.591Z,13.54
2023-04-12T10:36:56.708Z,13.58
2023-04-12T10:39:36.584Z,13.65
2023-04-12T10:42:29.003Z,13.69
2023-04-12T10:45:16.837Z,13.69
2023-04-12T10:47:48.916Z,13.71
2023-04-12T10:50:32.206Z,13.71
2023-04-12T10:53:15.190Z,13.69
2023-04-12T10:55:44.302Z,13.67
2023-04-12T10:58:49.098Z,13.65
2023-04-12T11:01:18.454Z,13.64
2023-04-12T11:04:06.820Z,13.64
2023-04-12T11:07:05.037Z,13.65
2023-04-12T11:09:34.421Z,13.69
2023-04-12T11:12:03.782Z,13.73
2023-04-12T11:14:49.154Z,13.81
2023-04-12T11:17:18.289Z,13.87
2023-04-12T11:19:55.804Z,13.95
2023-04-12T11:22:30.158Z,13.99
2023-04-12T11:24:58.956Z,14.01
2023-04-12T11:27:26.942Z,14.03
2023-04-12T11:29:55.804Z,14.05
2023-04-12T11:32:26.357Z,14.09
2023-04-12T11:34:54.162Z,14.11
2023-04-12T11:37:21.597Z,14.14
2023-04-12T11:39:51.162Z,14.18
2023-04-12T11:42:20.002Z,14.24
2023-04-12T11:44:57.744Z,14.30
2023-04-12T11:47:27.290Z,14.38
2023-04-12T11:49:55.571Z,14.45
2023-04-12T11:52:29.084Z,14.54
2023-04-12T11:54:58.703Z,14.62
2023-04-12T11:57:25.255Z,14.76
2023-04-12T11:59:53.641Z,14.91
2023-04-12T12:02:23.794Z,15.10
2023-04-12T12:04:51.089Z,15.28
2023-04-12T12:07:19.224Z,15.49
2023-04-12T12:09:46.763Z,15.67
2023-04-12T12:12:13.939Z,15.83
2023-04-12T12:14:41.053Z,15.95
2023-04-12T12:17:16.319Z,16.07
2023-04-12T12:19:44.962Z,16.14
2023-04-12T12:22:22.077Z,16.20
2023-04-12T12:24:55.580Z,16.28
2023-04-12T12:27:24.527Z,16.33
2023-04-12T12:29:55.462Z,16.40
2023-04-12T12:32:23.660Z,16.44
2023-04-12T12:34:52.261Z,16.50
2023-04-12T12:37:20.732Z,16.54
2023-04-12T12:40:16.433Z,16.56
2023-04-12T12:42:49.922Z,16.57
2023-04-12T12:45:18.722Z,16.54
2023-04-12T12:47:59.134Z,16.50
2023-04-12T12:50:27.451Z,16.44
2023-04-12T12:52:55.751Z,16.36
2023-04-12T12:55:23.545Z,16.27
2023-04-12T12:58:06.782Z,16.17
2023-04-12T13:00:34.444Z,16.04
2023-04-12T13:03:01.593Z,15.93
2023-04-12T13:05:28.357Z,15.85
2023-04-12T13:07:54.819Z,15.79
2023-04-12T13:10:21.264Z,15.78
2023-04-12T13:12:47.592Z,15.83
2023-04-12T13:15:22.161Z,15.87
2023-04-12T13:17:52.432Z,15.96
2023-04-12T13:20:19.034Z,16.06
2023-04-12T13:22:45.525Z,16.17
2023-04-12T13:25:11.987Z,16.31
2023-04-12T13:27:38.312Z,16.43
2023-04-12T13:30:05.595Z,16.53
2023-04-12T13:32:32.482Z,16.60
2023-04-12T13:34:58.871Z,16.66
2023-04-12T13:37:25.402Z,16.70
2023-04-12T13:39:52.458Z,16.70
2023-04-12T13:42:18.917Z,16.70
2023-04-12T13:44:45.750Z,16.67
2023-04-12T13:47:12.506Z,16.64
2023-04-12T13:49:39.243Z,16.58
2023-04-12T13:52:05.694Z,16.51
2023-04-12T13:54:32.068Z,16.45
2023-04-12T13:56:59.145Z,16.41
2023-04-12T13:59:26.505Z,16.38
2023-04-12T14:01:53.078Z,16.37
2023-04-12T14:04:20.192Z,16.39
2023-04-12T14:06:46.683Z,16.43
2023-04-12T14:09:29.745Z,16.51
2023-04-12T14:11:57.887Z,16.55
2023-04-12T14:14:25.721Z,16.59
2023-04-12T14:16:57.128Z,16.63
2023-04-12T14:19:24.180Z,16.66
2023-04-12T14:21:50.864Z,16.69
2023-04-12T14:24:18.386Z,16.73
2023-04-12T14:26:45.286Z,16.77
2023-04-12T14:29:11.982Z,16.82
2023-04-12T14:31:39.729Z,16.87
2023-04-12T14:34:08.496Z,16.94
2023-04-12T14:36:34.982Z,16.99
2023-04-12T14:39:04.064Z,17.05
2023-04-12T14:41:31.541Z,17.13
2023-04-12T14:44:01.502Z,17.20
2023-04-12T14:46:28.425Z,17.24
2023-04-12T14:48:55.314Z,17.29
2023-04-12T14:51:22.488Z,17.33
2023-04-12T14:53:49.564Z,17.33
2023-04-12T14:56:23.834Z,17.33
2023-04-12T14:58:53.977Z,17.32
2023-04-12T15:01:21.711Z,17.29
2023-04-12T15:03:48.271Z,17.25
2023-04-12T15:06:15.462Z,17.21
2023-04-12T15:08:41.869Z,17.17
2023-04-12T15:11:12.533Z,17.04
2023-04-12T15:13:39.901Z,16.81
2023-04-12T15:16:10.084Z,16.50
2023-04-12T15:18:41.565Z,16.10
2023-04-12T15:21:10.290Z,15.68
2023-04-12T15:23:36.891Z,15.32
2023-04-12T15:26:03.604Z,14.96
2023-04-12T15:28:31.485Z,14.62
2023-04-12T15:30:58.852Z,14.32
2023-04-12T15:33:25.834Z,14.04
2023-04-12T15:35:56.361Z,13.79
2023-04-12T15:38:24.540Z,13.54
2023-04-12T15:40:55.791Z,13.33
2023-04-12T15:43:23.197Z,13.10
2023-04-12T15:45:53.127Z,12.93
2023-04-12T15:48:23.598Z,12.76
2023-04-12T15:50:50.996Z,12.64
2023-04-12T15:53:21.325Z,12.54
2023-04-12T15:55:48.558Z,12.45
2023-04-12T15:58:15.084Z,12.38
2023-04-12T16:00:42.261Z,12.34
2023-04-12T16:03:09.061Z,12.30
2023-04-12T16:05:35.904Z,12.27
2023-04-12T16:08:02.758Z,12.25
2023-04-12T16:10:30.257Z,12.24
2023-04-12T16:12:57.064Z,12.24
2023-04-12T16:15:23.471Z,12.25
2023-04-12T16:17:55.278Z,12.25
2023-04-12T16:20:22.345Z,12.27
2023-04-12T16:22:55.912Z,12.29
2023-04-12T16:25:24.302Z,12.30
2023-04-12T16:27:51.391Z,12.33
2023-04-12T16:30:18.109Z,12.35
2023-04-12T16:32:46.746Z,12.38
2023-04-12T16:35:16.909Z,12.40
2023-04-12T16:37:44.714Z,12.42
2023-04-12T16:40:14.908Z,12.43
2023-04-12T16:42:42.638Z,12.43
2023-04-12T16:45:10.690Z,12.43
2023-04-12T16:47:37.610Z,12.41
2023-04-12T16:50:05.006Z,12.39
2023-04-12T16:52:31.844Z,12.36
2023-04-12T16:54:58.663Z,12.33
2023-04-12T16:57:25.192Z,12.32
2023-04-12T16:59:51.541Z,12.33
2023-04-12T17:02:17.945Z,12.34
2023-04-12T17:04:44.469Z,12.41
2023-04-12T17:07:10.902Z,12.51
2023-04-12T17:09:37.248Z,12.62
2023-04-12T17:12:03.802Z,12.73
2023-04-12T17:14:30.768Z,12.83
2023-04-12T17:16:57.671Z,12.93
2023-04-12T17:19:24.184Z,13.00
2023-04-12T17:21:51.429Z,13.04
2023-04-12T17:24:17.848Z,13.06
2023-04-12T17:26:44.668Z,13.05
2023-04-12T17:29:11.309Z,13.04
2023-04-12T17:31:39.012Z,13.00
2023-04-12T17:34:05.662Z,12.97
2023-04-12T17:36:33.705Z,12.91
2023-04-12T17:39:02.735Z,12.87
2023-04-12T17:41:29.140Z,12.82
2023-04-12T17:43:55.766Z,12.76
2023-04-12T17:46:24.025Z,12.72
2023-04-12T17:48:50.448Z,12.66
2023-04-12T17:51:17.119Z,12.61
2023-04-12T17:53:43.523Z,12.55
2023-04-12T17:56:10.346Z,12.47
2023-04-12T17:58:37.065Z,12.38
2023-04-12T18:01:03.601Z,12.32
2023-04-12T18:03:30.178Z,12.24
2023-04-12T18:05:58.893Z,12.18
2023-04-12T18:08:25.316Z,12.13
2023-04-12T18:10:52.395Z,12.07
2023-04-12T18:13:19.137Z,12.04
2023-04-12T18:15:45.515Z,12.00
2023-04-12T18:18:12.428Z,11.95
2023-04-12T18:20:39.345Z,11.90
2023-04-12T18:23:05.883Z,11.85
2023-04-12T18:25:32.338Z,11.81
2023-04-12T18:27:58.974Z,11.76
2023-04-12T18:30:25.568Z,11.71
2023-04-12T18:32:52.020Z,11.66
2023-04-12T18:35:18.446Z,11.62
2023-04-12T18:37:45.203Z,11.56
2023-04-12T18:40:12.254Z,11.51
2023-04-12T18:42:38.712Z,11.43
2023-04-12T18:45:05.551Z,11.36
2023-04-12T18:47:32.024Z,11.28
2023-04-12T18:49:58.427Z,11.21
2023-04-12T18:52:24.763Z,11.12
2023-04-12T18:54:51.264Z,11.05
2023-04-12T18:57:17.858Z,10.96
2023-04-12T18:59:47.636Z,10.88
2023-04-12T19:02:15.066Z,10.78
2023-04-12T19:04:42.001Z,10.70
2023-04-12T19:07:08.441Z,10.63
2023-04-12T19:09:34.776Z,10.56
2023-04-12T19:12:02.953Z,10.47
2023-04-12T19:14:30.441Z,10.41
2023-04-12T19:16:57.284Z,10.34
2023-04-12T19:19:23.955Z,10.28
2023-04-12T19:21:50.543Z,10.20
2023-04-12T19:24:17.318Z,10.14
2023-04-12T19:26:47.233Z,10.08
2023-04-12T19:29:17.609Z,10.02
2023-04-12T19:31:45.767Z,9.97
2023-04-12T19:34:13.871Z,9.92
2023-04-12T19:36:43.215Z,9.87
2023-04-12T19:39:09.886Z,9.82
2023-04-12T19:41:36.323Z,9.78
2023-04-12T19:44:02.797Z,9.73
2023-04-12T19:46:29.166Z,9.70
2023-04-12T19:48:55.539Z,9.64
2023-04-12T19:51:21.920Z,9.61
2023-04-12T19:53:50.421Z,9.56
2023-04-12T19:56:16.762Z,9.54
2023-04-12T19:58:44.304Z,9.50
2023-04-12T20:01:10.768Z,9.46
2023-04-12T20:03:38.726Z,9.43
2023-04-12T20:06:05.352Z,9.40
2023-04-12T20:08:31.952Z,9.37
2023-04-12T20:10:58.930Z,9.34
2023-04-12T20:13:25.297Z,9.31
2023-04-12T20:15:51.637Z,9.29
2023-04-12T20:18:18.201Z,9.25
2023-04-12T20:20:44.870Z,9.23
2023-04-12T20:23:12.605Z,9.20
2023-04-12T20:25:41.568Z,9.17
2023-04-12T20:28:09.017Z,9.15
2023-04-12T20:30:39.943Z,9.12
2023-04-12T20:33:06.944Z,9.09
2023-04-12T20:35:33.366Z,9.07
2023-04-12T20:38:00.099Z,9.03
2023-04-12T20:40:29.850Z,8.99
2023-04-12T20:42:56.786Z,8.95
2023-04-12T20:45:23.425Z,8.93
2023-04-12T20:47:49.887Z,8.88
2023-04-12T20:50:17.514Z,8.84
2023-04-12T20:52:45.413Z,8.78
2023-04-12T20:55:13.982Z,8.74
2023-04-12T20:57:40.688Z,8.70
2023-04-12T21:00:18.075Z,8.67
2023-04-12T21:02:45.823Z,8.63
2023-04-12T21:05:13.478Z,8.59
2023-04-12T21:07:41.273Z,8.56
2023-04-12T21:10:12.092Z,8.54
2023-04-12T21:12:39.871Z,8.47
2023-04-12T21:15:07.522Z,8.43
2023-04-12T21:17:35.579Z,8.40
2023-04-12T21:20:04.212Z,8.37
2023-04-12T21:22:31.005Z,8.32
2023-04-12T21:24:57.346Z,8.30
2023-04-12T21:27:23.992Z,8.27
2023-04-12T21:29:50.383Z,8.23
2023-04-12T21:32:16.943Z,8.19
2023-04-12T21:34:43.581Z,8.17
2023-04-12T21:37:10.842Z,8.14
2023-04-12T21:39:39.219Z,8.12
2023-04-12T21:42:05.655Z,8.08
2023-04-12T21:44:32.098Z,8.07
2023-04-12T21:46:58.510Z,8.04
2023-04-12T21:49:24.950Z,8.01
2023-04-12T21:51:52.323Z,7.98
2023-04-12T21:54:19.876Z,7.96
2023-04-12T21:56:46.340Z,7.93
2023-04-12T21:59:12.729Z,7.90
2023-04-12T22:01:39.311Z,7.88
2023-04-12T22:04:06.022Z,7.85
2023-04-12T22:06:32.552Z,7.82
2023-04-12T22:09:02.513Z,7.80
2023-04-12T22:11:30.500Z,7.77
2023-04-12T22:13:57.833Z,7.76
2023-04-12T22:16:24.673Z,7.74
2023-04-12T22:18:51.155Z,7.72
2023-04-12T22:21:17.714Z,7.68
2023-04-12T22:23:44.975Z,7.67
2023-04-12T22:26:12.431Z,7.64
2023-04-12T22:28:39.277Z,7.62
2023-04-12T22:31:06.479Z,7.59
2023-04-12T22:33:33.338Z,7.57
2023-04-12T22:36:02.042Z,7.54
2023-04-12T22:38:28.663Z,7.51
2023-04-12T22:41:01.937Z,7.49
2023-04-12T22:43:41.551Z,7.48
2023-04-12T22:46:15.638Z,7.46
2023-04-12T22:48:49.113Z,7.44
2023-04-12T22:51:15.681Z,7.40
2023-04-12T22:53:43.221Z,7.39
2023-04-12T22:56:09.742Z,7.37
2023-04-12T22:58:37.227Z,7.35
2023-04-12T23:01:06.610Z,7.34
2023-04-12T23:03:33.126Z,7.34
2023-04-12T23:06:00.144Z,7.33
2023-04-12T23:08:26.561Z,7.33
2023-04-12T23:10:53.295Z,7.32
2023-04-12T23:13:19.833Z,7.30
2023-04-12T23:15:46.297Z,7.29
2023-04-12T23:18:12.889Z,7.28
2023-04-12T23:20:40.406Z,7.27
2023-04-12T23:23:06.898Z,7.25
2023-04-12T23:25:41.537Z,7.23
2023-04-12T23:28:13.959Z,7.21
2023-04-12T23:30:48.734Z,7.19
2023-04-12T23:33:20.590Z,7.18
2023-04-12T23:35:58.836Z,7.15
2023-04-12T23:38:32.001Z,7.13
2023-04-12T23:41:04.199Z,7.10
2023-04-12T23:43:32.436Z,7.09
2023-04-12T23:45:58.986Z,7.07
2023-04-12T23:48:25.621Z,7.06
2023-04-12T23:50:52.158Z,7.04
2023-04-12T23:53:19.183Z,7.03
2023-04-12T23:55:51.063Z,7.01
2023-04-12T23:58:18.210Z,7.01
